LFSB/MLH METAR and TAF weather

Enter ICAO airport designator
Station Type Date Time Source
LFSB METAR 2019/10/18 10:30 UTC NOAA

LFSB 181030Z 17009KT 9999 FEW033 SCT050 BKN150 20/12 Q1013 NOSIG


Station Type Date Time Source
LFSB Decoded METAR 2019/10/18 10:30 UTC NOAA

Bale-Mulhouse, France (LFSB) 47-36N 007-31E 271M
Oct 18, 2019 - 06:30 AM EDT / 2019.10.18 1030 UTC
Wind: from the S (170 degrees) at 10 MPH (9 KT):0
Visibility: greater than 7 mile(s):0
Sky conditions: mostly cloudy
Temperature: 68 F (20 C)
Dew Point: 53 F (12 C)
Relative Humidity: 59%
Pressure (altimeter): 29.91 in. Hg (1013 hPa)
ob: LFSB 181030Z 17009KT 9999 FEW033 SCT050 BKN150 20/12 Q1013 NOSIG
cycle: 10

Station Type Date Time Source
LFSB TAF 2019/10/18 07:19 UTC NOAA

TAF
AMD LFSB 180708Z 1807/1906 15005KT 9999 FEW025 BKN045
TEMPO 1807/1817 4000 -SHRA SCT025TCU PROB40
TEMPO 1811/1813 28015G30KT 2000 SHRA SCT030CB PROB30
TEMPO 1811/1813 -TSRA PROB30
TEMPO 1821/1901 -RA
BECMG 1903/1905 -RA
TEMPO 1905/1906 4000 RA

Example: see airport list